• Join FlightAware (Why Join?)
  • Login
  • US Flag 
07:26PM EDT


 

Airport Tracker/Info


-or-


 

Live Flight TrackerFlight Track Log ✈ N27XP ✈ 18-Nov-2013 ✈ KSOP - KLAF

Flight Track Log - Related Links

Times and Time Zones

All times are in EST time to prevent confusion due to time zone crossing. See the N27XP flight status page for this flight to view local times or setup timezone preferences in your user account.

Time Position Orientation Groundspeed Altitude Reporting Facility
EST Latitude Longitude Course Direction KTS MPH feet Rate Location/Type
08:11AM 35.2792 -79.4797 315° West 228 262 5,400  Level Washington Center
08:12AM 35.3444 -79.5236 331° Northwest 240 276 7,800 2,040 Climbing Washington Center
08:13AM 35.4036 -79.5622 332° Northwest 253 291 9,600 1,860 Climbing Washington Center
08:14AM 35.4814 -79.6119 333° Northwest 271 312 11,700 1,860 Climbing Washington Center
08:15AM 35.5486 -79.6561 332° Northwest 289 333 13,300 1,740 Climbing Washington Center
08:16AM 35.6566 -79.9381 315° West  Level Estimated
08:16AM 35.6303 -79.7089 332° Northwest 298 343 15,200  Level Washington Center
08:18AM 35.7167 -79.7597 334° Northwest 292 336 16,800 1,020 Climbing Atlanta Center
08:19AM 35.8019 -79.8142 333° Northwest 298 343 17,600 1,260 Climbing Atlanta Center
08:20AM 35.8853 -79.8739 330° Northwest 320 368 19,400 1,680 Climbing Atlanta Center
08:21AM 35.9686 -79.9261 333° Northwest 326 375 21,000 1,500 Climbing Atlanta Center
08:22AM 36.0475 -79.9811 331° Northwest 331 381 22,500 1,440 Climbing Atlanta Center
08:23AM 36.1022 -80.0631 310° West 321 369 23,900 1,200 Climbing Atlanta Center
08:24AM 36.1486 -80.1431 306° West 312 359 25,000 960 Climbing Atlanta Center
08:25AM 36.2014 -80.2281 308° West 317 365 25,900 900 Climbing Atlanta Center
08:26AM 36.2606 -80.3181 309° West 325 374 26,900 960 Climbing Atlanta Center
08:27AM 36.3175 -80.4081 308° West 330 380 27,900 1,020 Climbing Atlanta Center
08:28AM 36.3742 -80.4983 308° West 330 380 29,000 1,080 Climbing Atlanta Center
08:29AM 36.4333 -80.5964 307° West 335 386 30,100 960 Climbing Atlanta Center
08:30AM 36.4922 -80.6842 310° West 335 386 31,000 420 Climbing Atlanta Center
08:31AM 36.5489 -80.7775 307° West 335 386 31,000  Level Atlanta Center
08:32AM 36.6119 -80.8808 307° West 348 400 31,000  Level Atlanta Center
08:33AM 36.6706 -80.9692 310° West 360 414 31,000 60 Level Atlanta Center
08:34AM 36.7358 -81.0756 307° West 373 429 31,200 300 Climbing Atlanta Center
08:35AM 36.7964 -81.1769 307° West 378 435 31,700 360 Climbing Atlanta Center
08:36AM 36.8614 -81.2808 308° West 378 435 32,000 120 Climbing Atlanta Center
08:37AM 36.9328 -81.3978 307° West 383 441 32,000  Level Atlanta Center
08:38AM 37.0350 -81.5547 309° West 391 450 32,000  Level Indianapolis Center
08:39AM 37.1008 -81.6622 308° West 390 449 32,000  Level Indianapolis Center
08:40AM 37.1664 -81.7711 307° West 392 451 32,000  Level Indianapolis Center
08:41AM 37.2325 -81.8800 307° West 392 451 32,000  Level Indianapolis Center
08:42AM 37.2975 -81.9892 307° West 391 450 32,000  Level Indianapolis Center
08:43AM 37.3636 -82.0967 308° West 390 449 32,000  Level Indianapolis Center
08:44AM 37.4372 -82.2211 307° West 384 442 32,000  Level Indianapolis Center
08:45AM 37.5000 -82.3267 307° West 379 436 32,000  Level Indianapolis Center
08:46AM 37.5633 -82.4319 307° West 378 435 32,000  Level Indianapolis Center
08:47AM 37.6269 -82.5383 307° West 380 437 32,000  Level Indianapolis Center
08:48AM 37.6894 -82.6447 307° West 378 435 32,000  Level Indianapolis Center
08:50AM 37.7608 -82.7669 306° West 373 429 32,000  Level Indianapolis Center
08:51AM 37.8242 -82.8742 307° West 378 435 32,000  Level Indianapolis Center
08:52AM 37.8856 -82.9792 307° West 375 432 32,000  Level Indianapolis Center
08:53AM 37.9478 -83.0847 307° West 374 430 32,000  Level Indianapolis Center
08:54AM 38.0094 -83.1914 306° West 373 429 32,000  Level Indianapolis Center
08:55AM 38.0711 -83.2969 307° West 373 429 32,000  Level Indianapolis Center
08:56AM 38.1433 -83.4211 307° West 374 430 32,000  Level Indianapolis Center
08:57AM 38.2056 -83.5281 307° West 375 432 32,000  Level Indianapolis Center
08:58AM 38.2653 -83.6347 306° West 371 427 32,000  Level Indianapolis Center
08:59AM 38.3267 -83.7411 306° West 371 427 32,000  Level Indianapolis Center
09:00AM 38.3878 -83.8469 306° West 371 427 32,000  Level Indianapolis Center
09:01AM 38.4478 -83.9536 306° West 370 426 32,000  Level Indianapolis Center
09:02AM 38.5178 -84.0778 306° West 369 425 32,000  Level Indianapolis Center
09:03AM 38.5772 -84.1833 306° West 367 422 32,000  Level Indianapolis Center
09:04AM 38.6361 -84.2906 305° West 368 423 32,000  Level Indianapolis Center
09:05AM 38.7000 -84.3992 307° West 367 422 32,000  Level Indianapolis Center
09:06AM 38.7611 -84.5022 307° West 365 420 32,000  Level Indianapolis Center
09:07AM 38.8231 -84.6083 307° West 364 419 32,000  Level Indianapolis Center
09:08AM 38.8831 -84.7122 307° West 363 418 32,000  Level Indianapolis Center
09:09AM 38.9425 -84.8161 306° West 365 420 32,000 -120 Level Indianapolis Center
09:10AM 39.0153 -84.9414 307° West 365 420 31,800 -780 Descending Indianapolis Center
09:11AM 39.0742 -85.0436 307° West 359 413 30,500 -1,260 Descending Indianapolis Center
09:12AM 39.1319 -85.1461 306° West 357 411 29,200 -1,260 Descending Indianapolis Center
09:13AM 39.1908 -85.2497 306° West 359 413 27,900 -1,260 Descending Indianapolis Center
09:14AM 39.2508 -85.3558 306° West 365 420 26,600 -1,260 Descending Indianapolis Center
09:15AM 39.3108 -85.4614 306° West 365 420 25,300 -1,440 Descending Indianapolis Center
09:16AM 39.3817 -85.5864 306° West 363 418 23,700 -1,440 Descending Indianapolis Center
09:17AM 39.4397 -85.6914 306° West 361 415 22,400 -1,320 Descending Indianapolis Center
09:18AM 39.4972 -85.7944 306° West 356 410 21,000 -1,320 Descending Indianapolis Center
09:19AM 39.5528 -85.8953 306° West 349 402 19,700 -1,200 Descending Indianapolis Center
09:20AM 39.6089 -85.9961 306° West 347 399 18,500 -1,200 Descending Indianapolis Center
09:22AM 39.6742 -86.1133 306° West 339 390 17,300 -1,140 Descending Indianapolis Center
09:23AM 39.7278 -86.2100 306° West 335 386 16,200 -1,020 Descending Indianapolis Center
09:24AM 39.7814 -86.3081 305° West 331 381 15,200 -1,080 Descending Indianapolis Center
09:25AM 39.8497 -86.3994 314° West 321 369 14,000 -1,260 Descending Indianapolis Center
09:26AM 39.9219 -86.4692 323° Northwest 322 371 12,700 -1,380 Descending Indianapolis Center
09:27AM 39.9936 -86.5367 324° Northwest 320 368 11,200 -1,380 Descending Indianapolis Center
09:28AM 40.0606 -86.5994 324° Northwest 302 348 9,900 -1,260 Descending Indianapolis Center
09:29AM 40.1192 -86.6558 324° Northwest 272 313 8,700 -1,380 Descending Indianapolis Center
09:30AM 40.1756 -86.7108 323° Northwest 256 295 7,300 -960 Descending Chicago Center
09:31AM 40.2336 -86.7664 324° Northwest 227 261 6,900 -720 Descending Chicago Center
09:32AM 40.2850 -86.7314 27° Northeast 246 283 6,000 -780 Descending Chicago Center
09:32AM 40.2875 -86.7322 346° North 249 287 6,100 -1,140 Climbing Chicago Center
09:33AM 40.3086 -86.6567 70° East 274 315 4,900 -1,080 Descending Chicago Center
09:33AM 40.3100 -86.6544 51° Northeast 257 296 5,000 -720 Climbing Chicago Center
09:34AM 40.3217 -86.5867 77° East 206 237 4,200 -1,020 Descending Chicago Center
09:34AM 40.3311 -86.5797 29° Northeast 226 260 4,000 -1,320 Descending Chicago Center
09:35AM 40.3525 -86.6019 322° Northwest 127 146 2,900 -960 Descending Chicago Center
09:35AM 40.3542 -86.6072 293° West 174 200 3,000  Climbing Chicago Center
09:36AM 40.3592 -86.6489 279° West 121 139 2,900  Descending Chicago Center
09:36AM 40.3614 -86.6539 300° West 145 167 3,000  Climbing Chicago Center
09:37AM 40.3678 -86.6986 281° West 134 154 2,900  Descending Chicago Center
09:37AM 40.3694 -86.7017 306° West 138 159 3,000  Climbing Chicago Center
09:38AM 40.3742 -86.7453 278° West 139 160 2,900  Descending Chicago Center
09:38AM 40.3769 -86.7511 302° West 137 158 3,000 -420 Climbing Chicago Center
09:39AM 40.3892 -86.7900 292° West 135 155 2,500 -540 Descending Chicago Center
09:39AM 40.3947 -86.8028 300° West 135 155 2,500 -420 Level Chicago Center
09:40AM 40.3981 -86.8314 279° West 113 130 2,100 -120 Descending Chicago Center
09:40AM 40.4050 -86.8400 317° Northwest 130 150 2,400 -720 Climbing Chicago Center
09:41AM 40.4047 -86.8756 269° West 117 135 1,400 -1,500 Descending Chicago Center